createdAt,value
2018-06-14T00:02:45.082Z,93.08
2018-06-14T00:05:50.670Z,92.67
2018-06-14T00:08:55.349Z,92.48
2018-06-14T00:11:59.616Z,92.39
2018-06-14T00:15:04.045Z,92.17
2018-06-14T00:18:08.571Z,92.19
2018-06-14T00:21:13.051Z,91.86
2018-06-14T00:24:17.310Z,91.96
2018-06-14T00:27:21.577Z,92.10
2018-06-14T00:30:25.853Z,92.14
2018-06-14T00:33:30.226Z,91.57
2018-06-14T00:36:34.973Z,91.94
2018-06-14T00:39:39.261Z,91.66
2018-06-14T00:42:43.585Z,91.71
2018-06-14T00:45:47.845Z,92.01
2018-06-14T00:48:52.106Z,91.97
2018-06-14T00:51:56.301Z,91.73
2018-06-14T00:55:00.577Z,91.48
2018-06-14T00:58:04.883Z,91.28
2018-06-14T01:01:09.110Z,91.26
2018-06-14T01:04:13.393Z,90.90
2018-06-14T01:07:17.871Z,91.14
2018-06-14T01:10:22.255Z,91.08
2018-06-14T01:13:26.554Z,90.57
2018-06-14T01:16:30.976Z,90.85
2018-06-14T01:19:36.004Z,90.67
2018-06-14T01:22:41.059Z,91.06
2018-06-14T01:25:45.344Z,90.34
2018-06-14T01:28:50.056Z,90.69
2018-06-14T01:31:54.301Z,90.95
2018-06-14T01:34:58.554Z,91.57
2018-06-14T01:38:24.131Z,90.92
2018-06-14T01:41:28.469Z,91.09
2018-06-14T01:44:32.716Z,91.22
2018-06-14T01:47:36.980Z,91.04
2018-06-14T01:50:41.457Z,90.24
2018-06-14T01:53:45.710Z,91.10
2018-06-14T01:56:49.970Z,89.86
2018-06-14T01:59:54.380Z,90.36
2018-06-14T02:02:58.628Z,90.73
2018-06-14T02:06:02.894Z,90.87
2018-06-14T02:09:09.708Z,90.64
2018-06-14T02:12:13.962Z,89.98
2018-06-14T02:15:18.227Z,90.40
2018-06-14T02:18:22.470Z,90.23
2018-06-14T02:21:26.733Z,90.79
2018-06-14T02:24:31.132Z,90.62
2018-06-14T02:27:35.397Z,90.13
2018-06-14T02:30:39.661Z,90.53
2018-06-14T02:33:43.989Z,90.83
2018-06-14T02:36:48.293Z,90.53
2018-06-14T02:39:52.369Z,90.33
2018-06-14T02:42:56.633Z,90.06
2018-06-14T02:46:00.633Z,89.69
2018-06-14T02:49:04.930Z,90.07
2018-06-14T02:52:09.206Z,89.36
2018-06-14T02:55:14.065Z,90.09
2018-06-14T02:58:18.773Z,90.10
2018-06-14T03:01:23.357Z,90.22
2018-06-14T03:04:27.945Z,90.29
2018-06-14T03:07:58.364Z,90.90
2018-06-14T03:11:03.569Z,91.12
2018-06-14T03:14:08.421Z,91.18
2018-06-14T03:17:13.309Z,91.46
2018-06-14T03:20:22.322Z,91.19
2018-06-14T03:23:29.044Z,91.42
2018-06-14T03:26:33.977Z,91.58
2018-06-14T03:29:40.837Z,91.17
2018-06-14T03:32:45.121Z,90.95
2018-06-14T03:35:50.037Z,90.51
2018-06-14T03:38:54.785Z,90.62
2018-06-14T03:42:05.605Z,90.25
2018-06-14T03:45:11.213Z,90.54
2018-06-14T03:48:16.443Z,90.65
2018-06-14T03:51:21.316Z,91.27
2018-06-14T03:54:26.367Z,91.20
2018-06-14T03:57:31.575Z,91.15
2018-06-14T04:00:36.664Z,90.67
2018-06-14T04:03:40.942Z,90.64
2018-06-14T04:06:45.845Z,90.53
2018-06-14T04:09:51.310Z,90.44
2018-06-14T04:12:58.729Z,89.97
2018-06-14T04:16:03.091Z,89.68
2018-06-14T04:19:09.262Z,89.03
2018-06-14T04:22:13.566Z,88.84
2018-06-14T04:25:20.396Z,89.13
2018-06-14T04:28:25.647Z,88.63
2018-06-14T04:31:30.443Z,88.10
2018-06-14T04:34:35.933Z,88.16
2018-06-14T04:37:40.204Z,87.86
2018-06-14T04:40:44.619Z,87.08
2018-06-14T04:43:49.125Z,87.28
2018-06-14T04:46:53.941Z,86.31
2018-06-14T04:49:58.399Z,86.09
2018-06-14T04:53:03.722Z,85.79
2018-06-14T04:56:09.397Z,85.75
2018-06-14T04:59:15.560Z,84.92
2018-06-14T05:02:21.007Z,84.61
2018-06-14T05:05:25.919Z,83.51
2018-06-14T05:08:30.526Z,84.19
2018-06-14T05:11:34.797Z,86.05
2018-06-14T05:14:39.277Z,85.95
2018-06-14T05:17:43.839Z,86.10
2018-06-14T05:20:48.569Z,85.07
2018-06-14T05:23:53.273Z,84.28
2018-06-14T05:27:29.630Z,81.14
2018-06-14T05:30:34.931Z,79.07
2018-06-14T05:33:39.289Z,77.70
2018-06-14T05:36:43.953Z,77.02
2018-06-14T05:39:49.505Z,78.42
2018-06-14T05:42:54.137Z,79.80
2018-06-14T05:45:58.396Z,79.27
2018-06-14T05:49:02.881Z,78.41
2018-06-14T05:52:07.198Z,79.50
2018-06-14T05:55:11.507Z,79.65
2018-06-14T05:58:15.742Z,76.98
2018-06-14T06:01:20.002Z,74.43
2018-06-14T06:04:24.297Z,70.46
2018-06-14T06:07:28.627Z,66.32
2018-06-14T06:10:33.070Z,65.50
2018-06-14T06:13:37.425Z,63.74
2018-06-14T06:16:42.111Z,62.78
2018-06-14T06:19:46.473Z,61.52
2018-06-14T06:22:51.795Z,58.01
2018-06-14T06:25:56.417Z,61.72
2018-06-14T06:29:00.818Z,61.21
2018-06-14T06:32:05.550Z,63.30
2018-06-14T06:35:09.813Z,59.46
2018-06-14T06:38:14.106Z,58.90
2018-06-14T06:41:18.357Z,61.66
2018-06-14T06:44:22.621Z,63.77
2018-06-14T06:47:26.885Z,64.69
2018-06-14T06:50:31.146Z,65.01
2018-06-14T06:53:36.941Z,64.58
2018-06-14T06:56:41.297Z,62.28
2018-06-14T06:59:45.653Z,61.88
2018-06-14T07:02:49.951Z,64.03
2018-06-14T07:05:54.435Z,65.70
2018-06-14T07:08:59.185Z,65.76
2018-06-14T07:12:03.706Z,69.94
2018-06-14T07:15:08.010Z,67.15
2018-06-14T07:18:12.526Z,64.67
2018-06-14T07:21:16.822Z,67.82
2018-06-14T07:24:21.109Z,62.96
2018-06-14T07:27:25.509Z,63.39
2018-06-14T07:30:29.820Z,60.87
2018-06-14T07:36:50.574Z,59.56
2018-06-14T07:39:54.918Z,57.20
2018-06-14T07:42:59.346Z,58.70
2018-06-14T07:46:03.835Z,63.00
2018-06-14T07:49:08.155Z,61.14
2018-06-14T07:52:12.470Z,61.42
2018-06-14T07:55:16.844Z,61.09
2018-06-14T07:58:21.406Z,57.39
2018-06-14T08:01:26.346Z,56.47
2018-06-14T08:04:30.738Z,58.51
2018-06-14T08:07:35.369Z,57.01
2018-06-14T08:10:39.798Z,57.83
2018-06-14T08:13:44.770Z,57.54
2018-06-14T08:16:49.091Z,60.05
2018-06-14T08:19:53.400Z,57.18
2018-06-14T08:22:57.823Z,58.04
2018-06-14T08:26:04.449Z,59.47
2018-06-14T08:29:08.829Z,56.89
2018-06-14T08:32:14.332Z,59.85
2018-06-14T08:35:18.778Z,59.33
2018-06-14T08:38:23.145Z,59.77
2018-06-14T08:42:30.958Z,60.63
2018-06-14T08:45:35.477Z,60.80
2018-06-14T08:48:39.873Z,60.27
2018-06-14T08:51:44.511Z,61.83
2018-06-14T08:54:48.905Z,61.07
2018-06-14T08:57:53.145Z,60.28
2018-06-14T09:00:57.489Z,60.31
2018-06-14T09:04:02.286Z,58.78
2018-06-14T09:07:06.612Z,59.64
2018-06-14T09:10:10.914Z,59.33
2018-06-14T09:13:15.146Z,58.79
2018-06-14T09:16:19.436Z,56.89
2018-06-14T09:19:23.826Z,54.76
2018-06-14T09:22:28.481Z,55.35
2018-06-14T09:25:32.967Z,58.14
2018-06-14T09:28:37.245Z,57.61
2018-06-14T09:31:41.647Z,57.80
2018-06-14T09:34:45.896Z,57.32
2018-06-14T09:37:50.229Z,56.52
2018-06-14T09:40:54.584Z,57.14
2018-06-14T09:43:58.965Z,57.32
2018-06-14T09:47:03.408Z,57.12
2018-06-14T09:50:07.824Z,56.13
2018-06-14T09:53:12.170Z,55.35
2018-06-14T09:56:16.429Z,55.06
2018-06-14T09:59:20.935Z,54.53
2018-06-14T10:02:25.373Z,54.66
2018-06-14T10:05:29.786Z,54.72
2018-06-14T10:08:34.089Z,57.51
2018-06-14T10:11:38.448Z,54.63
2018-06-14T10:14:42.694Z,57.37
2018-06-14T10:17:47.184Z,56.97
2018-06-14T10:20:51.489Z,54.15
2018-06-14T10:23:55.857Z,52.38
2018-06-14T10:27:00.209Z,54.62
2018-06-14T10:30:04.717Z,53.65
2018-06-14T10:33:09.169Z,54.34
2018-06-14T10:36:13.713Z,54.42
2018-06-14T10:39:17.966Z,50.90
2018-06-14T10:42:22.479Z,54.63
2018-06-14T10:45:27.585Z,56.17
2018-06-14T10:48:31.941Z,54.38
2018-06-14T10:51:36.548Z,52.14
2018-06-14T10:54:40.901Z,53.59
2018-06-14T10:57:45.261Z,55.19
2018-06-14T11:00:50.430Z,54.88
2018-06-14T11:03:54.532Z,51.41
2018-06-14T11:06:58.871Z,53.37
2018-06-14T11:10:03.285Z,50.25
2018-06-14T11:13:07.700Z,53.76
2018-06-14T11:16:11.973Z,54.73
2018-06-14T11:19:16.389Z,51.02
2018-06-14T11:22:20.809Z,48.17
2018-06-14T11:25:26.027Z,49.38
2018-06-14T11:28:30.521Z,50.88
2018-06-14T11:31:34.877Z,49.66
2018-06-14T11:34:39.315Z,48.74
2018-06-14T11:37:43.819Z,52.78
2018-06-14T11:40:48.186Z,47.29
2018-06-14T11:43:53.285Z,47.85
2018-06-14T11:46:57.582Z,48.07
2018-06-14T11:50:01.874Z,48.92
2018-06-14T11:53:06.282Z,47.37
2018-06-14T11:56:10.561Z,47.29
2018-06-14T11:59:14.830Z,46.62
2018-06-14T12:02:20.102Z,46.35
2018-06-14T12:05:24.582Z,46.24
2018-06-14T12:08:29.179Z,50.96
2018-06-14T12:11:33.471Z,46.58
2018-06-14T12:14:37.805Z,46.19
2018-06-14T12:17:42.117Z,44.98
2018-06-14T12:20:46.412Z,46.34
2018-06-14T12:23:50.699Z,49.31
2018-06-14T12:26:54.982Z,46.52
2018-06-14T12:29:59.403Z,49.10
2018-06-14T12:33:03.683Z,48.89
2018-06-14T12:36:08.083Z,48.33
2018-06-14T12:39:12.380Z,49.01
2018-06-14T12:42:16.736Z,48.82
2018-06-14T12:45:22.743Z,48.61
2018-06-14T12:48:56.703Z,47.68
2018-06-14T12:52:02.386Z,50.07
2018-06-14T12:55:08.481Z,50.52
2018-06-14T12:58:12.917Z,50.49
2018-06-14T13:01:17.264Z,48.45
2018-06-14T13:04:21.544Z,46.62
2018-06-14T13:07:26.475Z,47.63
2018-06-14T13:10:30.758Z,50.46
2018-06-14T13:13:35.505Z,49.99
2018-06-14T13:16:39.774Z,46.93
2018-06-14T13:19:44.355Z,49.87
2018-06-14T13:22:48.866Z,50.18
2018-06-14T13:25:53.260Z,49.69
2018-06-14T13:29:26.649Z,49.90
2018-06-14T13:32:32.552Z,50.48
2018-06-14T13:35:38.608Z,50.30
2018-06-14T13:38:42.713Z,49.26
2018-06-14T13:41:47.850Z,48.40
2018-06-14T13:44:53.095Z,47.78
2018-06-14T13:47:57.469Z,47.06
2018-06-14T13:51:02.105Z,48.91
2018-06-14T13:54:06.522Z,47.82
2018-06-14T13:57:13.342Z,48.20
2018-06-14T14:00:18.026Z,50.14
2018-06-14T14:03:22.771Z,47.49
2018-06-14T14:06:28.678Z,46.48
2018-06-14T14:09:35.279Z,45.35
2018-06-14T14:12:40.138Z,46.84
2018-06-14T14:15:48.541Z,45.84
2018-06-14T14:18:56.876Z,46.14
2018-06-14T14:22:01.270Z,45.35
2018-06-14T14:25:06.602Z,45.77
2018-06-14T14:28:12.481Z,47.78
2018-06-14T14:31:16.976Z,46.47
2018-06-14T14:34:21.544Z,46.85
2018-06-14T14:37:26.076Z,46.55
2018-06-14T14:40:30.414Z,47.67
2018-06-14T14:43:35.255Z,48.99
2018-06-14T14:46:40.058Z,48.92
2018-06-14T14:49:44.365Z,49.91
2018-06-14T14:52:49.108Z,48.96
2018-06-14T14:55:53.709Z,50.25
2018-06-14T14:58:58.522Z,49.72
2018-06-14T15:02:03.405Z,49.05
2018-06-14T15:05:07.910Z,49.60
2018-06-14T15:08:13.365Z,48.97
2018-06-14T15:11:18.041Z,46.96
2018-06-14T15:14:22.499Z,47.22
2018-06-14T15:17:26.956Z,47.96
2018-06-14T15:20:31.957Z,48.75
2018-06-14T15:23:36.741Z,48.92
2018-06-14T15:26:42.193Z,50.85
2018-06-14T15:29:46.711Z,48.63
2018-06-14T15:32:51.185Z,48.95
2018-06-14T15:35:56.027Z,47.65
2018-06-14T15:39:00.496Z,49.24
2018-06-14T15:42:05.421Z,48.38
2018-06-14T15:45:10.621Z,48.31
2018-06-14T15:48:15.032Z,49.28
2018-06-14T15:51:19.558Z,47.46
2018-06-14T15:54:23.914Z,47.86
2018-06-14T15:57:28.288Z,46.85
2018-06-14T16:00:33.121Z,48.39
2018-06-14T16:03:37.508Z,46.05
2018-06-14T16:06:41.889Z,46.68
2018-06-14T16:09:46.221Z,45.58
2018-06-14T16:12:50.722Z,44.87
2018-06-14T16:15:55.191Z,45.12
2018-06-14T16:18:59.647Z,46.65
2018-06-14T16:22:04.060Z,45.95
2018-06-14T16:25:08.457Z,46.67
2018-06-14T16:28:12.756Z,46.16
2018-06-14T16:31:17.647Z,46.66
2018-06-14T16:34:21.944Z,48.20
2018-06-14T16:37:26.256Z,45.98
2018-06-14T16:40:31.080Z,48.56
2018-06-14T16:43:36.501Z,48.97
2018-06-14T16:46:40.866Z,49.86
2018-06-14T16:49:45.305Z,52.22
2018-06-14T16:52:49.469Z,50.69
2018-06-14T16:55:53.888Z,51.48
2018-06-14T16:58:58.340Z,49.60
2018-06-14T17:02:02.709Z,49.03
2018-06-14T17:05:07.154Z,51.47
2018-06-14T17:08:11.649Z,52.79
2018-06-14T17:11:16.228Z,52.43
2018-06-14T17:14:20.811Z,50.00
2018-06-14T17:17:25.395Z,49.13
2018-06-14T17:20:29.640Z,50.04
2018-06-14T17:23:34.812Z,50.30
2018-06-14T17:26:39.164Z,51.76
2018-06-14T17:29:43.646Z,50.96
2018-06-14T17:32:48.512Z,51.27
2018-06-14T17:35:52.958Z,51.63
2018-06-14T17:38:57.501Z,50.73
2018-06-14T17:42:01.818Z,51.35
2018-06-14T17:45:06.482Z,52.10
2018-06-14T17:48:10.808Z,54.00
2018-06-14T17:51:15.708Z,54.65
2018-06-14T17:54:20.340Z,53.61
2018-06-14T17:57:24.770Z,54.16
2018-06-14T18:00:29.264Z,55.15
2018-06-14T18:03:34.362Z,54.10
2018-06-14T18:06:38.986Z,56.39
2018-06-14T18:09:43.313Z,58.24
2018-06-14T18:12:48.044Z,59.47
2018-06-14T18:15:52.501Z,57.25
2018-06-14T18:18:57.203Z,57.47
2018-06-14T18:22:02.153Z,57.61
2018-06-14T18:25:06.679Z,57.50
2018-06-14T18:28:11.921Z,57.88
2018-06-14T18:31:16.568Z,58.48
2018-06-14T18:34:21.145Z,59.35
2018-06-14T18:37:25.799Z,59.82
2018-06-14T18:40:30.305Z,60.66
2018-06-14T18:43:35.305Z,62.64
2018-06-14T18:46:39.937Z,62.75
2018-06-14T18:49:44.511Z,62.23
2018-06-14T18:52:48.980Z,62.58
2018-06-14T18:55:54.937Z,63.55
2018-06-14T18:59:03.843Z,62.53
2018-06-14T19:02:08.291Z,63.97
2018-06-14T19:05:12.879Z,65.34
2018-06-14T19:08:17.800Z,65.30
2018-06-14T19:11:22.977Z,65.93
2018-06-14T19:14:27.376Z,67.93
2018-06-14T19:17:32.147Z,68.51
2018-06-14T19:20:36.489Z,69.81
2018-06-14T19:23:40.790Z,71.14
2018-06-14T19:26:45.842Z,71.29
2018-06-14T19:29:50.319Z,72.02
2018-06-14T19:32:54.801Z,71.98
2018-06-14T19:35:59.354Z,72.20
2018-06-14T19:39:06.681Z,71.86
2018-06-14T19:42:12.167Z,72.36
2018-06-14T19:45:17.592Z,72.54
2018-06-14T19:48:22.258Z,71.51
2018-06-14T19:51:27.342Z,72.34
2018-06-14T19:54:31.989Z,73.26
2018-06-14T19:57:37.514Z,73.08
2018-06-14T20:00:42.149Z,72.97
2018-06-14T20:03:46.684Z,74.14
2018-06-14T20:06:51.184Z,75.52
2018-06-14T20:09:55.636Z,76.04
2018-06-14T20:13:00.682Z,76.45
2018-06-14T20:16:07.006Z,76.65
2018-06-14T20:19:14.482Z,76.67
2018-06-14T20:22:18.924Z,77.74
2018-06-14T20:25:23.354Z,78.24
2018-06-14T20:28:28.014Z,78.06
2018-06-14T20:31:32.649Z,78.27
2018-06-14T20:34:37.902Z,77.61
2018-06-14T20:37:42.500Z,78.43
2018-06-14T20:40:47.656Z,79.14
2018-06-14T20:43:52.912Z,78.44
2018-06-14T20:46:57.617Z,78.21
2018-06-14T20:50:03.213Z,79.69
2018-06-14T20:53:07.557Z,81.20
2018-06-14T20:56:11.862Z,82.29
2018-06-14T20:59:17.008Z,83.06
2018-06-14T21:02:21.375Z,83.55
2018-06-14T21:05:26.102Z,84.12
2018-06-14T21:08:30.573Z,84.00
2018-06-14T21:11:34.937Z,83.22
2018-06-14T21:14:39.207Z,82.37
2018-06-14T21:17:46.302Z,80.93
2018-06-14T21:20:54.406Z,81.08
2018-06-14T21:23:58.929Z,81.73
2018-06-14T21:27:03.205Z,79.92
2018-06-14T21:30:07.485Z,79.37
2018-06-14T21:33:11.790Z,78.67
2018-06-14T21:36:16.056Z,79.01
2018-06-14T21:39:20.388Z,78.06
2018-06-14T21:42:24.747Z,77.46
2018-06-14T21:45:29.167Z,77.22
2018-06-14T21:48:33.466Z,77.08
2018-06-14T21:51:37.794Z,77.66
2018-06-14T21:54:42.378Z,77.83
2018-06-14T21:57:46.888Z,78.78
2018-06-14T22:00:52.342Z,79.19
2018-06-14T22:03:59.220Z,78.07
2018-06-14T22:07:03.537Z,77.65
2018-06-14T22:10:08.083Z,77.85
2018-06-14T22:13:13.512Z,78.78
2018-06-14T22:16:40.909Z,78.62
2018-06-14T22:19:45.266Z,79.48
2018-06-14T22:22:50.600Z,78.80
2018-06-14T22:26:00.798Z,81.24
2018-06-14T22:29:05.123Z,80.56
2018-06-14T22:32:09.414Z,81.45
2018-06-14T22:35:31.570Z,81.43
2018-06-14T22:38:35.873Z,81.26
2018-06-14T22:41:41.278Z,81.90
2018-06-14T22:44:45.600Z,81.93
2018-06-14T22:47:49.959Z,82.02
2018-06-14T22:51:11.409Z,82.25
2018-06-14T22:54:15.830Z,82.17
2018-06-14T22:57:20.261Z,81.90
2018-06-14T23:02:05.356Z,81.77
2018-06-14T23:05:10.422Z,82.34
2018-06-14T23:08:14.693Z,82.32
2018-06-14T23:11:21.908Z,83.10
2018-06-14T23:14:26.224Z,82.92
2018-06-14T23:17:30.508Z,83.62
2018-06-14T23:20:35.975Z,82.48
2018-06-14T23:23:40.294Z,82.54
2018-06-14T23:26:44.737Z,83.39
2018-06-14T23:29:49.058Z,84.04
2018-06-14T23:32:53.400Z,84.07
2018-06-14T23:35:57.788Z,83.83
2018-06-14T23:39:02.163Z,83.25
2018-06-14T23:42:06.976Z,83.83
2018-06-14T23:45:11.302Z,83.76
2018-06-14T23:48:15.843Z,83.73
2018-06-14T23:51:20.338Z,83.37
2018-06-14T23:54:24.694Z,83.94
2018-06-14T23:57:29.060Z,83.77
